createdAt,value
2023-10-13T00:01:14.709Z,18.00
2023-10-13T00:03:43.600Z,18.00
2023-10-13T00:06:11.829Z,17.90
2023-10-13T00:08:40.642Z,17.90
2023-10-13T00:11:14.265Z,18.00
2023-10-13T00:13:51.405Z,17.90
2023-10-13T00:16:22.741Z,18.00
2023-10-13T00:18:55.656Z,17.90
2023-10-13T00:21:32.562Z,18.00
2023-10-13T00:24:02.730Z,18.00
2023-10-13T00:26:32.211Z,18.00
2023-10-13T00:29:09.799Z,18.00
2023-10-13T00:31:40.241Z,18.00
2023-10-13T00:34:19.983Z,18.00
2023-10-13T00:37:10.306Z,18.00
2023-10-13T00:39:41.783Z,17.90
2023-10-13T00:42:19.411Z,17.80
2023-10-13T00:44:50.502Z,17.90
2023-10-13T00:47:24.269Z,17.80
2023-10-13T00:49:52.575Z,17.90
2023-10-13T00:52:20.631Z,17.90
2023-10-13T00:54:49.913Z,17.90
2023-10-13T00:57:27.598Z,17.90
2023-10-13T00:59:56.928Z,17.90
2023-10-13T01:02:39.026Z,17.80
2023-10-13T01:05:11.084Z,17.90
2023-10-13T01:07:38.998Z,17.90
2023-10-13T01:10:14.465Z,17.90
2023-10-13T01:12:43.725Z,17.90
2023-10-13T01:15:12.401Z,17.90
2023-10-13T01:17:39.507Z,17.90
2023-10-13T01:20:09.188Z,17.90
2023-10-13T01:22:37.382Z,17.90
2023-10-13T01:25:13.912Z,17.80
2023-10-13T01:27:42.689Z,17.80
2023-10-13T01:30:11.631Z,17.90
2023-10-13T01:32:41.938Z,17.90
2023-10-13T01:35:09.465Z,17.90
2023-10-13T01:37:37.607Z,18.00
2023-10-13T01:40:07.308Z,17.90
2023-10-13T01:42:38.048Z,17.90
2023-10-13T01:45:06.820Z,17.90
2023-10-13T01:47:35.380Z,17.90
2023-10-13T01:50:14.131Z,17.90
2023-10-13T01:52:43.227Z,17.80
2023-10-13T01:55:12.984Z,17.90
2023-10-13T01:57:43.485Z,17.80
2023-10-13T02:00:20.060Z,17.90
2023-10-13T02:02:51.396Z,17.90
2023-10-13T02:05:18.811Z,17.90
2023-10-13T02:07:47.274Z,17.90
2023-10-13T02:10:15.923Z,17.90
2023-10-13T02:12:46.863Z,18.00
2023-10-13T02:15:21.598Z,18.00
2023-10-13T02:17:52.986Z,18.00
2023-10-13T02:20:23.837Z,18.10
2023-10-13T02:22:52.062Z,18.10
2023-10-13T02:25:36.862Z,18.10
2023-10-13T02:28:09.980Z,18.20
2023-10-13T02:30:39.202Z,18.20
2023-10-13T02:33:08.031Z,18.30
2023-10-13T02:35:36.270Z,18.30
2023-10-13T02:38:11.801Z,18.30
2023-10-13T02:40:40.860Z,18.40
2023-10-13T02:43:08.996Z,18.40
2023-10-13T02:45:37.924Z,18.40
2023-10-13T02:48:13.864Z,18.40
2023-10-13T02:50:45.123Z,18.40
2023-10-13T02:53:14.464Z,18.40
2023-10-13T02:55:52.829Z,18.40
2023-10-13T02:58:21.850Z,18.40
2023-10-13T03:00:49.279Z,18.40
2023-10-13T03:03:19.952Z,18.40
2023-10-13T03:05:47.571Z,18.40
2023-10-13T03:08:26.861Z,18.40
2023-10-13T03:10:56.101Z,18.40
2023-10-13T03:13:24.257Z,18.40
2023-10-13T03:15:51.748Z,18.40
2023-10-13T03:18:20.009Z,18.40
2023-10-13T03:20:51.807Z,18.40
2023-10-13T03:23:19.907Z,18.30
2023-10-13T03:25:51.200Z,18.40
2023-10-13T03:28:25.053Z,18.40
2023-10-13T03:30:54.473Z,18.40
2023-10-13T03:33:27.844Z,18.40
2023-10-13T03:36:00.548Z,18.40
2023-10-13T03:38:28.999Z,18.40
2023-10-13T03:41:08.678Z,18.40
2023-10-13T03:43:46.431Z,18.40
2023-10-13T03:46:15.426Z,18.40
2023-10-13T03:48:55.565Z,18.50
2023-10-13T03:51:31.947Z,18.50
2023-10-13T03:54:00.382Z,18.50
2023-10-13T03:56:39.745Z,18.40
2023-10-13T03:59:11.380Z,18.40
2023-10-13T04:01:47.135Z,18.40
2023-10-13T04:04:16.954Z,18.50
2023-10-13T04:06:55.529Z,18.50
2023-10-13T04:09:41.868Z,18.40
2023-10-13T04:12:36.306Z,18.40
2023-10-13T04:15:24.609Z,18.40
2023-10-13T04:17:52.999Z,18.40
2023-10-13T04:20:34.288Z,18.30
2023-10-13T04:23:16.376Z,18.40
2023-10-13T04:26:01.504Z,18.40
2023-10-13T04:28:38.895Z,18.40
2023-10-13T04:31:13.628Z,18.40
2023-10-13T04:33:52.852Z,18.50
2023-10-13T04:36:37.310Z,18.50
2023-10-13T04:39:14.965Z,18.40
2023-10-13T04:41:45.356Z,18.40
2023-10-13T04:44:33.352Z,18.40
2023-10-13T04:47:19.693Z,18.40
2023-10-13T04:50:01.618Z,18.40
2023-10-13T04:53:02.234Z,18.40
2023-10-13T04:55:49.524Z,18.40
2023-10-13T04:58:38.325Z,18.30
2023-10-13T05:01:38.349Z,18.40
2023-10-13T05:04:23.185Z,18.40
2023-10-13T05:07:08.517Z,18.40
2023-10-13T05:09:54.225Z,18.40
2023-10-13T05:12:40.019Z,18.50
2023-10-13T05:15:25.924Z,18.50
2023-10-13T05:18:11.584Z,18.50
2023-10-13T05:20:58.363Z,18.50
2023-10-13T05:23:43.765Z,18.50
2023-10-13T05:26:29.374Z,18.50
2023-10-13T05:29:26.357Z,18.50
2023-10-13T05:32:14.794Z,18.60
2023-10-13T05:35:00.216Z,18.60
2023-10-13T05:37:46.918Z,18.60
2023-10-13T05:40:34.674Z,18.60
2023-10-13T05:43:20.618Z,18.60
2023-10-13T05:46:08.518Z,18.50
2023-10-13T05:48:55.827Z,18.50
2023-10-13T05:51:45.014Z,18.50
2023-10-13T05:54:32.977Z,18.50
2023-10-13T05:57:18.528Z,18.50
2023-10-13T06:00:04.296Z,18.50
2023-10-13T06:02:49.862Z,18.60
2023-10-13T06:05:35.275Z,18.60
2023-10-13T06:08:20.744Z,18.60
2023-10-13T06:11:08.565Z,18.60
2023-10-13T06:13:54.230Z,18.70
2023-10-13T06:16:40.009Z,18.70
2023-10-13T06:19:25.500Z,18.60
2023-10-13T06:22:19.551Z,18.60
2023-10-13T06:25:05.239Z,18.70
2023-10-13T06:27:51.949Z,18.70
2023-10-13T06:30:20.532Z,18.70
2023-10-13T06:32:48.661Z,18.80
2023-10-13T06:35:24.040Z,18.80
2023-10-13T06:37:52.644Z,18.80
2023-10-13T06:40:34.196Z,18.90
2023-10-13T06:43:17.948Z,18.90
2023-10-13T06:45:51.989Z,18.80
2023-10-13T06:48:21.738Z,18.90
2023-10-13T06:50:53.748Z,19.00
2023-10-13T06:53:21.887Z,19.00
2023-10-13T06:55:53.790Z,19.00
2023-10-13T06:58:25.380Z,19.00
2023-10-13T07:00:59.185Z,18.90
2023-10-13T07:03:27.606Z,19.00
2023-10-13T07:06:00.164Z,19.00
2023-10-13T07:08:32.186Z,19.00
2023-10-13T07:11:06.607Z,19.10
2023-10-13T07:13:39.335Z,19.20
2023-10-13T07:16:16.415Z,19.20
2023-10-13T07:18:57.428Z,19.20
2023-10-13T07:21:32.694Z,19.20
2023-10-13T07:24:09.686Z,19.20
2023-10-13T07:26:44.038Z,19.20
2023-10-13T07:29:15.565Z,19.30
2023-10-13T07:31:46.761Z,19.30
2023-10-13T07:34:25.558Z,19.30
2023-10-13T07:37:00.984Z,19.40
2023-10-13T07:39:35.258Z,19.40
2023-10-13T07:42:09.195Z,19.40
2023-10-13T07:44:46.991Z,19.40
2023-10-13T07:47:16.602Z,19.50
2023-10-13T07:49:46.414Z,19.50
2023-10-13T07:52:28.217Z,19.60
2023-10-13T07:55:01.298Z,19.60
2023-10-13T07:57:31.423Z,19.70
2023-10-13T08:00:11.565Z,19.70
2023-10-13T08:02:52.805Z,19.70
2023-10-13T08:05:40.525Z,19.70
2023-10-13T08:08:15.533Z,19.80
2023-10-13T08:10:46.523Z,19.80
2023-10-13T08:13:15.076Z,19.80
2023-10-13T08:15:49.036Z,19.90
2023-10-13T08:18:31.228Z,20.00
2023-10-13T08:21:04.476Z,20.00
2023-10-13T08:23:56.345Z,20.00
2023-10-13T08:26:42.611Z,20.00
2023-10-13T08:29:24.740Z,19.90
2023-10-13T08:32:15.222Z,20.00
2023-10-13T08:35:01.435Z,20.00
2023-10-13T08:37:34.167Z,20.00
2023-10-13T08:40:27.765Z,20.00
2023-10-13T08:43:12.707Z,20.00
2023-10-13T08:45:58.595Z,19.90
2023-10-13T08:48:33.769Z,19.90
2023-10-13T08:51:11.977Z,19.90
2023-10-13T08:53:53.344Z,19.90
2023-10-13T08:56:35.193Z,20.00
2023-10-13T08:59:08.839Z,20.00
2023-10-13T09:01:46.665Z,20.00
2023-10-13T09:04:23.265Z,20.00
2023-10-13T09:07:09.912Z,20.00
2023-10-13T09:10:33.696Z,20.00
2023-10-13T09:13:04.506Z,20.10
2023-10-13T09:16:05.177Z,20.20
2023-10-13T09:18:47.708Z,20.10
2023-10-13T09:21:35.666Z,20.20
2023-10-13T09:27:04.462Z,20.20
2023-10-13T09:29:39.287Z,20.30
2023-10-13T09:32:13.412Z,20.30
2023-10-13T09:34:45.478Z,20.40
2023-10-13T09:37:21.949Z,20.40
2023-10-13T09:39:54.201Z,20.40
2023-10-13T09:42:24.995Z,20.40
2023-10-13T09:44:56.499Z,20.40
2023-10-13T09:47:33.486Z,20.40
2023-10-13T09:50:06.938Z,20.40
2023-10-13T09:52:38.771Z,20.40
2023-10-13T09:55:22.223Z,20.40
2023-10-13T09:58:00.536Z,20.40
2023-10-13T10:00:57.490Z,20.40
2023-10-13T10:03:40.884Z,20.30
2023-10-13T10:06:16.367Z,20.40
2023-10-13T10:08:51.907Z,20.40
2023-10-13T10:11:58.271Z,20.50
2023-10-13T10:14:43.487Z,20.50
2023-10-13T10:17:12.012Z,20.50
2023-10-13T10:19:50.516Z,20.60
2023-10-13T10:22:34.962Z,20.60
2023-10-13T10:25:04.097Z,20.60
2023-10-13T10:27:33.848Z,20.70
2023-10-13T10:30:05.062Z,20.70
2023-10-13T10:32:38.218Z,20.80
2023-10-13T10:35:15.596Z,21.00
2023-10-13T10:37:49.212Z,20.90
2023-10-13T10:40:34.857Z,21.00
2023-10-13T10:43:11.257Z,21.00
2023-10-13T10:45:51.728Z,21.00
2023-10-13T10:48:22.056Z,21.10
2023-10-13T10:50:57.036Z,21.20
2023-10-13T10:53:34.295Z,21.20
2023-10-13T10:56:21.155Z,21.30
2023-10-13T10:58:49.875Z,21.40
2023-10-13T11:01:22.805Z,21.50
2023-10-13T11:04:09.001Z,21.50
2023-10-13T11:06:43.700Z,21.60
2023-10-13T11:09:22.397Z,21.80
2023-10-13T11:11:53.823Z,21.80
2023-10-13T11:14:26.923Z,21.90
2023-10-13T11:17:01.523Z,22.00
2023-10-13T11:19:37.135Z,22.00
2023-10-13T11:22:30.508Z,22.00
2023-10-13T11:25:00.917Z,22.00
2023-10-13T11:27:57.718Z,22.00
2023-10-13T11:30:41.721Z,21.90
2023-10-13T11:33:12.754Z,21.90
2023-10-13T11:35:56.586Z,21.80
2023-10-13T11:38:30.178Z,21.80
2023-10-13T11:41:15.993Z,21.90
2023-10-13T11:44:07.209Z,21.90
2023-10-13T11:46:52.687Z,21.90
2023-10-13T11:49:34.749Z,22.00
2023-10-13T11:52:18.080Z,22.10
2023-10-13T11:54:48.346Z,22.10
2023-10-13T11:57:21.203Z,22.20
2023-10-13T11:59:57.567Z,22.30
2023-10-13T12:02:43.193Z,22.30
2023-10-13T12:05:18.335Z,22.30
2023-10-13T12:07:50.390Z,22.30
2023-10-13T12:10:34.276Z,22.30
2023-10-13T12:13:09.122Z,22.20
2023-10-13T12:15:49.988Z,22.10
2023-10-13T12:18:20.493Z,22.10
2023-10-13T12:20:50.856Z,22.00
2023-10-13T12:23:21.580Z,21.90
2023-10-13T12:26:02.363Z,21.80
2023-10-13T12:28:32.576Z,21.70
2023-10-13T12:31:08.424Z,21.70
2023-10-13T12:33:41.901Z,21.70
2023-10-13T12:36:16.363Z,21.60
2023-10-13T12:39:07.893Z,21.70
2023-10-13T12:41:53.454Z,21.60
2023-10-13T12:44:38.858Z,21.60
2023-10-13T12:47:24.636Z,21.60
2023-10-13T12:49:59.420Z,21.70
2023-10-13T12:52:33.166Z,21.60
2023-10-13T12:55:07.658Z,21.70
2023-10-13T12:57:44.586Z,21.60
2023-10-13T13:00:22.483Z,21.70
2023-10-13T13:02:54.126Z,21.70
2023-10-13T13:05:24.084Z,21.70
2023-10-13T13:07:56.254Z,21.80
2023-10-13T13:10:39.993Z,21.70
2023-10-13T13:13:08.658Z,21.80
2023-10-13T13:15:36.703Z,21.90
2023-10-13T13:18:12.849Z,21.90
2023-10-13T13:20:45.030Z,22.00
2023-10-13T13:23:18.175Z,22.00
2023-10-13T13:25:47.752Z,22.00
2023-10-13T13:28:16.480Z,22.00
2023-10-13T13:30:44.544Z,22.00
2023-10-13T13:33:13.231Z,22.00
2023-10-13T13:35:43.966Z,22.00
2023-10-13T13:38:18.053Z,22.00
2023-10-13T13:40:50.431Z,22.00
2023-10-13T13:43:32.782Z,22.00
2023-10-13T13:46:03.478Z,22.00
2023-10-13T13:48:33.665Z,21.90
2023-10-13T13:51:07.275Z,21.90
2023-10-13T13:53:39.229Z,21.90
2023-10-13T13:56:08.861Z,21.90
2023-10-13T13:58:39.425Z,21.90
2023-10-13T14:01:15.105Z,21.90
2023-10-13T14:03:47.442Z,21.90
2023-10-13T14:06:19.574Z,21.90
2023-10-13T14:08:49.520Z,21.90
2023-10-13T14:11:39.681Z,22.00
2023-10-13T14:14:12.973Z,21.90
2023-10-13T14:16:45.818Z,21.90
2023-10-13T14:19:14.333Z,22.00
2023-10-13T14:21:43.630Z,21.90
2023-10-13T14:24:17.960Z,21.90
2023-10-13T14:26:47.687Z,21.80
2023-10-13T14:29:17.048Z,21.90
2023-10-13T14:31:45.254Z,21.90
2023-10-13T14:34:14.378Z,21.90
2023-10-13T14:36:42.438Z,21.80
2023-10-13T14:39:11.282Z,21.70
2023-10-13T14:41:40.083Z,21.70
2023-10-13T14:44:10.399Z,21.70
2023-10-13T14:46:40.344Z,21.80
2023-10-13T14:49:09.116Z,21.80
2023-10-13T14:51:41.103Z,21.70
2023-10-13T14:54:09.619Z,21.70
2023-10-13T14:56:37.692Z,21.60
2023-10-13T14:59:07.020Z,21.70
2023-10-13T15:01:36.673Z,21.70
2023-10-13T15:04:06.122Z,21.80
2023-10-13T15:06:34.319Z,21.80
2023-10-13T15:09:03.924Z,21.70
2023-10-13T15:11:47.237Z,21.70
2023-10-13T15:14:17.936Z,21.80
2023-10-13T15:16:47.424Z,21.70
2023-10-13T15:19:17.703Z,21.70
2023-10-13T15:21:50.260Z,21.70
2023-10-13T15:24:25.986Z,21.70
2023-10-13T15:27:04.085Z,21.70
2023-10-13T15:29:38.439Z,21.70
2023-10-13T15:32:28.147Z,21.70
2023-10-13T15:34:57.358Z,21.60
2023-10-13T15:37:27.096Z,21.60
2023-10-13T15:39:59.852Z,21.60
2023-10-13T15:42:28.532Z,21.60
2023-10-13T15:45:00.865Z,21.50
2023-10-13T15:50:09.288Z,21.30
2023-10-13T15:52:40.304Z,21.20
2023-10-13T15:55:11.960Z,21.10
2023-10-13T15:57:40.087Z,21.10
2023-10-13T16:00:24.268Z,21.00
2023-10-13T16:02:55.735Z,20.90
2023-10-13T16:05:26.073Z,20.90
2023-10-13T16:07:54.808Z,20.80
2023-10-13T16:10:25.901Z,20.70
2023-10-13T16:12:54.518Z,20.60
2023-10-13T16:15:22.694Z,20.50
2023-10-13T16:17:54.640Z,20.40
2023-10-13T16:20:25.931Z,20.20
2023-10-13T16:22:54.015Z,20.20
2023-10-13T16:25:22.397Z,20.10
2023-10-13T16:27:50.755Z,20.10
2023-10-13T16:30:20.770Z,20.10
2023-10-13T16:32:50.547Z,20.10
2023-10-13T16:35:19.720Z,20.00
2023-10-13T16:37:51.653Z,20.00
2023-10-13T16:40:21.135Z,20.00
2023-10-13T16:42:50.223Z,19.90
2023-10-13T16:45:21.860Z,19.80
2023-10-13T16:47:50.518Z,19.80
2023-10-13T16:50:19.014Z,19.80
2023-10-13T16:52:50.306Z,19.80
2023-10-13T16:55:21.118Z,19.80
2023-10-13T16:57:51.330Z,19.90
2023-10-13T17:00:19.906Z,19.90
2023-10-13T17:02:48.164Z,19.80
2023-10-13T17:05:18.913Z,19.80
2023-10-13T17:07:49.090Z,19.70
2023-10-13T17:10:17.681Z,19.70
2023-10-13T17:12:46.252Z,19.70
2023-10-13T17:15:20.624Z,19.60
2023-10-13T17:17:49.081Z,19.70
2023-10-13T17:20:18.585Z,19.70
2023-10-13T17:22:49.245Z,19.70
2023-10-13T17:25:17.439Z,19.60
2023-10-13T17:27:46.601Z,19.60
2023-10-13T17:30:14.996Z,19.60
2023-10-13T17:32:45.789Z,19.60
2023-10-13T17:35:14.354Z,19.60
2023-10-13T17:37:44.726Z,19.60
2023-10-13T17:40:17.548Z,19.50
2023-10-13T17:42:48.300Z,19.50
2023-10-13T17:45:16.527Z,19.60
2023-10-13T17:47:45.674Z,19.60
2023-10-13T17:50:14.501Z,19.60
2023-10-13T17:52:43.468Z,19.50
2023-10-13T17:55:12.287Z,19.50
2023-10-13T17:57:41.785Z,19.60
2023-10-13T18:00:15.569Z,19.60
2023-10-13T18:02:44.704Z,19.60
2023-10-13T18:05:13.826Z,19.50
2023-10-13T18:07:43.826Z,19.50
2023-10-13T18:10:14.062Z,19.50
2023-10-13T18:12:43.899Z,19.50
2023-10-13T18:15:14.924Z,19.50
2023-10-13T18:17:43.298Z,19.50
2023-10-13T18:20:16.206Z,19.50
2023-10-13T18:22:44.673Z,19.50
2023-10-13T18:25:14.186Z,19.50
2023-10-13T18:27:43.995Z,19.50
2023-10-13T18:30:13.655Z,19.50
2023-10-13T18:32:42.423Z,19.50
2023-10-13T18:35:12.611Z,19.50
2023-10-13T18:37:42.654Z,19.40
2023-10-13T18:40:18.410Z,19.40
2023-10-13T18:42:51.201Z,19.40
2023-10-13T18:45:21.047Z,19.40
2023-10-13T18:47:51.316Z,19.50
2023-10-13T18:50:19.505Z,19.40
2023-10-13T18:52:47.904Z,19.40
2023-10-13T18:55:16.110Z,19.40
2023-10-13T18:57:45.741Z,19.50
2023-10-13T19:00:16.862Z,19.50
2023-10-13T19:02:48.597Z,19.50
2023-10-13T19:05:17.325Z,19.40
2023-10-13T19:07:45.449Z,19.40
2023-10-13T19:10:16.769Z,19.50
2023-10-13T19:12:45.544Z,19.50
2023-10-13T19:15:16.029Z,19.50
2023-10-13T19:17:44.334Z,19.50
2023-10-13T19:20:17.119Z,19.50
2023-10-13T19:22:47.296Z,19.60
2023-10-13T19:25:15.595Z,19.60
2023-10-13T19:27:43.852Z,19.60
2023-10-13T19:30:12.651Z,19.60
2023-10-13T19:32:42.206Z,19.60
2023-10-13T19:35:10.970Z,19.60
2023-10-13T19:37:43.595Z,19.70
2023-10-13T19:40:13.097Z,19.70
2023-10-13T19:42:42.443Z,19.80
2023-10-13T19:45:14.120Z,19.80
2023-10-13T19:47:46.118Z,19.80
2023-10-13T19:50:20.618Z,19.80
2023-10-13T19:52:52.609Z,19.80
2023-10-13T19:55:21.099Z,19.90
2023-10-13T19:57:51.907Z,19.90
2023-10-13T20:00:26.618Z,19.90
2023-10-13T20:02:56.379Z,19.90
2023-10-13T20:05:24.403Z,19.80
2023-10-13T20:07:54.923Z,19.90
2023-10-13T20:10:23.685Z,19.90
2023-10-13T20:12:51.996Z,19.80
2023-10-13T20:15:20.524Z,19.80
2023-10-13T20:17:48.732Z,19.80
2023-10-13T20:20:20.859Z,19.80
2023-10-13T20:22:48.922Z,19.80
2023-10-13T20:25:17.006Z,19.80
2023-10-13T20:27:46.337Z,19.80
2023-10-13T20:30:17.446Z,19.80
2023-10-13T20:32:47.261Z,19.80
2023-10-13T20:35:22.863Z,19.80
2023-10-13T20:37:53.294Z,19.80
2023-10-13T20:40:21.742Z,19.70
2023-10-13T20:42:50.980Z,19.70
2023-10-13T20:45:24.241Z,19.60
2023-10-13T20:47:53.261Z,19.60
2023-10-13T20:50:24.207Z,19.60
2023-10-13T20:52:53.734Z,19.60
2023-10-13T20:55:23.491Z,19.60
2023-10-13T20:57:52.269Z,19.60
2023-10-13T21:00:25.108Z,19.60
2023-10-13T21:02:54.098Z,19.40
2023-10-13T21:05:24.870Z,19.40
2023-10-13T21:07:54.885Z,19.40
2023-10-13T21:10:26.425Z,19.30
2023-10-13T21:12:56.160Z,19.30
2023-10-13T21:15:26.223Z,19.20
2023-10-13T21:17:55.136Z,19.10
2023-10-13T21:20:26.753Z,19.00
2023-10-13T21:22:54.823Z,19.00
2023-10-13T21:25:25.269Z,19.00
2023-10-13T21:27:55.416Z,18.90
2023-10-13T21:30:27.081Z,18.80
2023-10-13T21:32:58.314Z,18.80
2023-10-13T21:35:32.356Z,18.80
2023-10-13T21:38:00.622Z,18.80
2023-10-13T21:40:31.111Z,18.80
2023-10-13T21:43:06.316Z,18.90
2023-10-13T21:45:36.744Z,18.90
2023-10-13T21:48:10.139Z,18.90
2023-10-13T21:50:43.748Z,18.90
2023-10-13T21:53:14.434Z,18.90
2023-10-13T21:55:42.686Z,18.90
2023-10-13T21:58:10.851Z,18.80
2023-10-13T22:00:57.088Z,18.80
2023-10-13T22:03:26.960Z,18.80
2023-10-13T22:05:57.428Z,18.70
2023-10-13T22:08:25.973Z,18.70
2023-10-13T22:10:55.178Z,18.70
2023-10-13T22:13:23.255Z,18.60
2023-10-13T22:15:52.354Z,18.60
2023-10-13T22:18:20.752Z,18.50
2023-10-13T22:20:49.328Z,18.40
2023-10-13T22:23:18.777Z,18.10
2023-10-13T22:25:47.429Z,17.80
2023-10-13T22:28:16.341Z,17.60
2023-10-13T22:30:45.072Z,17.40
2023-10-13T22:33:13.720Z,17.30
2023-10-13T22:35:42.896Z,17.20
2023-10-13T22:38:12.495Z,17.10
2023-10-13T22:40:42.114Z,17.00
2023-10-13T22:43:10.359Z,17.00
2023-10-13T22:45:38.698Z,17.00
2023-10-13T22:48:08.054Z,16.90
2023-10-13T22:50:36.089Z,16.80
2023-10-13T22:53:06.860Z,16.70
2023-10-13T22:55:37.919Z,16.60
2023-10-13T22:58:10.944Z,16.50
2023-10-13T23:00:51.133Z,16.30
2023-10-13T23:03:19.999Z,16.10
2023-10-13T23:05:54.356Z,16.00
2023-10-13T23:08:23.709Z,15.80
2023-10-13T23:10:53.046Z,15.60
2023-10-13T23:13:22.837Z,15.50
2023-10-13T23:15:54.815Z,15.40
2023-10-13T23:18:24.827Z,15.30
2023-10-13T23:20:53.663Z,15.20
2023-10-13T23:23:25.677Z,15.20
2023-10-13T23:25:54.541Z,15.30
2023-10-13T23:28:34.323Z,15.20
2023-10-13T23:31:06.242Z,15.20
2023-10-13T23:33:34.534Z,15.20
2023-10-13T23:36:04.136Z,15.20
2023-10-13T23:38:35.825Z,15.20
2023-10-13T23:41:06.273Z,15.20
2023-10-13T23:43:45.502Z,15.10
2023-10-13T23:46:14.642Z,15.10
2023-10-13T23:48:44.966Z,15.10
2023-10-13T23:51:14.323Z,15.10
2023-10-13T23:53:46.593Z,15.00
2023-10-13T23:56:16.212Z,15.00
2023-10-13T23:59:00.002Z,14.90
